Terminal Aerodrome Forecast
Issued by NWS

Home | Current Version | Previous Version | Text Only | Print | Product List | Glossary On
Versions: 1 2 3 4 5 6 7 8 9 10 11 12
000
FTUS41 KCAR 011746
TAFBHB
TAF
KBHB 011746Z 0118/0218 19007KT P6SM BKN250
     FM020000 21010KT P6SM -SN OVC060
     FM020300 21010KT 2SM -SN OVC020
     FM020700 23005KT 3/4SM -SN OVC007
     FM020900 00000KT 2SM -SN OVC008
     FM021100 30006KT 4SM -SN OVC015
     FM021500 30013KT P6SM OVC045
      AMD LTD TO CLD VIS AND WIND=

USA.gov is the U.S. government's official web portal to all federal, state and local government web resources and services.